sensor_id;sensor_type;location;lat;lon;timestamp;P1;durP1;ratioP1;P2;durP2;ratioP2
1206;SDS011;593;53.184;8.216;2022-12-28T00:01:06;3.43;;;1.40;;
1206;SDS011;593;53.184;8.216;2022-12-28T00:03:31;6.10;;;1.30;;
1206;SDS011;593;53.184;8.216;2022-12-28T00:05:57;8.77;;;1.93;;
1206;SDS011;593;53.184;8.216;2022-12-28T00:08:22;5.97;;;1.50;;
1206;SDS011;593;53.184;8.216;2022-12-28T00:10:47;2.27;;;1.10;;
1206;SDS011;593;53.184;8.216;2022-12-28T00:13:12;1.20;;;1.10;;
1206;SDS011;593;53.184;8.216;2022-12-28T00:15:38;4.47;;;1.47;;
1206;SDS011;593;53.184;8.216;2022-12-28T00:18:03;3.30;;;1.00;;
1206;SDS011;593;53.184;8.216;2022-12-28T00:20:28;2.83;;;1.60;;
1206;SDS011;593;53.184;8.216;2022-12-28T00:22:54;4.10;;;1.30;;
1206;SDS011;593;53.184;8.216;2022-12-28T00:25:19;2.77;;;1.27;;
1206;SDS011;593;53.184;8.216;2022-12-28T00:27:44;3.60;;;1.40;;
1206;SDS011;593;53.184;8.216;2022-12-28T00:30:10;1.93;;;1.50;;
1206;SDS011;593;53.184;8.216;2022-12-28T00:32:35;3.63;;;1.20;;
1206;SDS011;593;53.184;8.216;2022-12-28T00:35:01;2.30;;;1.13;;
1206;SDS011;593;53.184;8.216;2022-12-28T00:37:26;8.10;;;1.90;;
1206;SDS011;593;53.184;8.216;2022-12-28T00:39:51;3.20;;;0.87;;
1206;SDS011;593;53.184;8.216;2022-12-28T00:42:17;2.87;;;1.07;;
1206;SDS011;593;53.184;8.216;2022-12-28T00:44:42;2.03;;;0.93;;
1206;SDS011;593;53.184;8.216;2022-12-28T00:47:08;3.30;;;1.40;;
1206;SDS011;593;53.184;8.216;2022-12-28T00:49:34;1.07;;;0.97;;
1206;SDS011;593;53.184;8.216;2022-12-28T00:51:59;2.90;;;1.50;;
1206;SDS011;593;53.184;8.216;2022-12-28T00:54:25;2.13;;;0.93;;
1206;SDS011;593;53.184;8.216;2022-12-28T00:56:50;2.80;;;1.87;;
1206;SDS011;593;53.184;8.216;2022-12-28T00:59:15;3.47;;;1.10;;
1206;SDS011;593;53.184;8.216;2022-12-28T01:01:41;2.50;;;1.57;;
1206;SDS011;593;53.184;8.216;2022-12-28T01:04:06;2.90;;;1.40;;
1206;SDS011;593;53.184;8.216;2022-12-28T01:06:32;1.33;;;1.10;;
1206;SDS011;593;53.184;8.216;2022-12-28T01:08:57;2.77;;;0.83;;
1206;SDS011;593;53.184;8.216;2022-12-28T01:11:24;5.15;;;1.20;;
1206;SDS011;593;53.184;8.216;2022-12-28T01:13:52;4.60;;;1.20;;
1206;SDS011;593;53.184;8.216;2022-12-28T01:16:20;4.95;;;1.67;;
1206;SDS011;593;53.184;8.216;2022-12-28T01:18:46;2.90;;;1.30;;
1206;SDS011;593;53.184;8.216;2022-12-28T01:21:15;6.28;;;1.15;;
1206;SDS011;593;53.184;8.216;2022-12-28T01:23:43;1.20;;;1.10;;
1206;SDS011;593;53.184;8.216;2022-12-28T01:26:09;4.03;;;1.38;;
1206;SDS011;593;53.184;8.216;2022-12-28T01:28:35;1.40;;;1.30;;
1206;SDS011;593;53.184;8.216;2022-12-28T01:31:11;5.17;;;1.30;;
1206;SDS011;593;53.184;8.216;2022-12-28T01:33:38;2.85;;;1.20;;
1206;SDS011;593;53.184;8.216;2022-12-28T01:36:07;3.43;;;1.30;;
1206;SDS011;593;53.184;8.216;2022-12-28T01:38:34;2.88;;;1.70;;
1206;SDS011;593;53.184;8.216;2022-12-28T01:41:01;2.67;;;1.75;;
1206;SDS011;593;53.184;8.216;2022-12-28T01:43:35;2.28;;;1.40;;
1206;SDS011;593;53.184;8.216;2022-12-28T01:46:03;3.03;;;1.60;;
1206;SDS011;593;53.184;8.216;2022-12-28T01:48:28;5.20;;;1.50;;
1206;SDS011;593;53.184;8.216;2022-12-28T01:50:55;1.35;;;1.25;;
1206;SDS011;593;53.184;8.216;2022-12-28T01:53:20;3.63;;;2.00;;
1206;SDS011;593;53.184;8.216;2022-12-28T01:55:46;4.50;;;1.70;;
1206;SDS011;593;53.184;8.216;2022-12-28T01:58:19;4.75;;;2.25;;
1206;SDS011;593;53.184;8.216;2022-12-28T02:00:49;2.08;;;1.50;;
1206;SDS011;593;53.184;8.216;2022-12-28T02:03:16;3.97;;;2.33;;
1206;SDS011;593;53.184;8.216;2022-12-28T02:05:47;3.58;;;1.63;;
1206;SDS011;593;53.184;8.216;2022-12-28T02:10:47;1.63;;;1.50;;
1206;SDS011;593;53.184;8.216;2022-12-28T02:13:14;3.50;;;2.22;;
1206;SDS011;593;53.184;8.216;2022-12-28T02:15:41;1.50;;;1.40;;
1206;SDS011;593;53.184;8.216;2022-12-28T02:18:07;2.67;;;2.22;;
1206;SDS011;593;53.184;8.216;2022-12-28T02:32:15;1.88;;;1.60;;
1206;SDS011;593;53.184;8.216;2022-12-28T02:35:12;2.35;;;2.03;;
1206;SDS011;593;53.184;8.216;2022-12-28T02:37:46;3.55;;;2.50;;
1206;SDS011;593;53.184;8.216;2022-12-28T02:40:25;2.72;;;2.53;;
1206;SDS011;593;53.184;8.216;2022-12-28T02:42:55;3.45;;;3.15;;
1206;SDS011;593;53.184;8.216;2022-12-28T02:48:25;2.08;;;1.88;;
1206;SDS011;593;53.184;8.216;2022-12-28T02:54:00;2.60;;;2.38;;
1206;SDS011;593;53.184;8.216;2022-12-28T02:56:46;3.35;;;2.38;;
1206;SDS011;593;53.184;8.216;2022-12-28T03:05:08;5.07;;;2.28;;
1206;SDS011;593;53.184;8.216;2022-12-28T03:13:10;3.10;;;1.90;;
1206;SDS011;593;53.184;8.216;2022-12-28T03:16:05;2.95;;;2.60;;
1206;SDS011;593;53.184;8.216;2022-12-28T03:18:34;2.33;;;2.17;;
1206;SDS011;593;53.184;8.216;2022-12-28T03:21:20;5.10;;;2.70;;
1206;SDS011;593;53.184;8.216;2022-12-28T03:24:06;4.95;;;2.55;;
1206;SDS011;593;53.184;8.216;2022-12-28T03:26:52;2.65;;;2.42;;
1206;SDS011;593;53.184;8.216;2022-12-28T03:29:39;1.67;;;1.55;;
1206;SDS011;593;53.184;8.216;2022-12-28T03:32:31;4.90;;;2.05;;
1206;SDS011;593;53.184;8.216;2022-12-28T03:34:56;2.53;;;2.33;;
1206;SDS011;593;53.184;8.216;2022-12-28T03:37:33;4.87;;;2.80;;
1206;SDS011;593;53.184;8.216;2022-12-28T03:42:56;3.67;;;2.50;;
1206;SDS011;593;53.184;8.216;2022-12-28T03:48:21;2.70;;;2.33;;
1206;SDS011;593;53.184;8.216;2022-12-28T03:50:47;2.00;;;1.85;;
1206;SDS011;593;53.184;8.216;2022-12-28T03:53:15;3.75;;;2.53;;
1206;SDS011;593;53.184;8.216;2022-12-28T03:55:43;3.92;;;2.60;;
1206;SDS011;593;53.184;8.216;2022-12-28T03:58:09;3.33;;;3.03;;
1206;SDS011;593;53.184;8.216;2022-12-28T04:00:34;2.70;;;2.50;;
1206;SDS011;593;53.184;8.216;2022-12-28T04:02:59;3.23;;;2.57;;
1206;SDS011;593;53.184;8.216;2022-12-28T04:05:25;7.97;;;4.00;;
1206;SDS011;593;53.184;8.216;2022-12-28T04:07:50;3.10;;;2.80;;
1206;SDS011;593;53.184;8.216;2022-12-28T04:10:15;4.37;;;2.60;;
1206;SDS011;593;53.184;8.216;2022-12-28T04:12:41;3.00;;;2.70;;
1206;SDS011;593;53.184;8.216;2022-12-28T04:15:06;3.37;;;3.13;;
1206;SDS011;593;53.184;8.216;2022-12-28T04:17:32;3.10;;;2.90;;
1206;SDS011;593;53.184;8.216;2022-12-28T04:19:57;6.77;;;3.43;;
1206;SDS011;593;53.184;8.216;2022-12-28T04:22:23;3.13;;;2.93;;
1206;SDS011;593;53.184;8.216;2022-12-28T04:24:48;3.50;;;3.20;;
1206;SDS011;593;53.184;8.216;2022-12-28T04:27:13;6.70;;;4.20;;
1206;SDS011;593;53.184;8.216;2022-12-28T04:29:39;3.30;;;3.00;;
1206;SDS011;593;53.184;8.216;2022-12-28T04:32:04;4.20;;;3.73;;
1206;SDS011;593;53.184;8.216;2022-12-28T04:34:30;4.43;;;4.03;;
1206;SDS011;593;53.184;8.216;2022-12-28T04:36:55;4.80;;;3.90;;
1206;SDS011;593;53.184;8.216;2022-12-28T04:39:20;4.13;;;3.70;;
1206;SDS011;593;53.184;8.216;2022-12-28T04:41:46;4.63;;;3.50;;
1206;SDS011;593;53.184;8.216;2022-12-28T04:44:11;4.33;;;4.03;;
1206;SDS011;593;53.184;8.216;2022-12-28T04:46:36;4.03;;;3.73;;
1206;SDS011;593;53.184;8.216;2022-12-28T04:49:02;5.20;;;4.03;;
1206;SDS011;593;53.184;8.216;2022-12-28T04:51:27;4.40;;;4.00;;
1206;SDS011;593;53.184;8.216;2022-12-28T04:53:53;4.87;;;4.30;;
1206;SDS011;593;53.184;8.216;2022-12-28T04:56:20;5.95;;;4.05;;
1206;SDS011;593;53.184;8.216;2022-12-28T04:58:46;3.85;;;3.47;;
1206;SDS011;593;53.184;8.216;2022-12-28T05:01:13;4.67;;;4.23;;
1206;SDS011;593;53.184;8.216;2022-12-28T05:03:41;4.05;;;3.85;;
1206;SDS011;593;53.184;8.216;2022-12-28T05:06:15;3.85;;;3.60;;
1206;SDS011;593;53.184;8.216;2022-12-28T05:08:42;4.53;;;4.13;;
1206;SDS011;593;53.184;8.216;2022-12-28T05:11:12;4.00;;;3.70;;
1206;SDS011;593;53.184;8.216;2022-12-28T05:13:39;4.40;;;4.10;;
1206;SDS011;593;53.184;8.216;2022-12-28T05:16:05;9.30;;;4.57;;
1206;SDS011;593;53.184;8.216;2022-12-28T05:18:34;4.93;;;4.63;;
1206;SDS011;593;53.184;8.216;2022-12-28T05:21:01;4.40;;;4.10;;
1206;SDS011;593;53.184;8.216;2022-12-28T05:23:35;3.90;;;3.70;;
1206;SDS011;593;53.184;8.216;2022-12-28T05:26:05;5.13;;;4.72;;
1206;SDS011;593;53.184;8.216;2022-12-28T05:28:33;4.75;;;4.35;;
1206;SDS011;593;53.184;8.216;2022-12-28T05:31:02;3.60;;;3.30;;
1206;SDS011;593;53.184;8.216;2022-12-28T05:33:30;4.05;;;3.75;;
1206;SDS011;593;53.184;8.216;2022-12-28T05:36:10;4.55;;;4.15;;
1206;SDS011;593;53.184;8.216;2022-12-28T05:38:39;3.60;;;3.30;;
1206;SDS011;593;53.184;8.216;2022-12-28T05:41:13;4.20;;;3.90;;
1206;SDS011;593;53.184;8.216;2022-12-28T05:43:40;3.40;;;3.10;;
1206;SDS011;593;53.184;8.216;2022-12-28T05:46:08;3.33;;;3.10;;
1206;SDS011;593;53.184;8.216;2022-12-28T05:48:36;2.80;;;2.60;;
1206;SDS011;593;53.184;8.216;2022-12-28T05:51:04;3.90;;;3.60;;
1206;SDS011;593;53.184;8.216;2022-12-28T05:53:31;3.50;;;3.30;;
1206;SDS011;593;53.184;8.216;2022-12-28T05:56:04;3.47;;;2.33;;
1206;SDS011;593;53.184;8.216;2022-12-28T05:58:32;3.38;;;2.70;;
1206;SDS011;593;53.184;8.216;2022-12-28T06:03:31;2.33;;;2.22;;
1206;SDS011;593;53.184;8.216;2022-12-28T06:06:01;2.85;;;2.70;;
1206;SDS011;593;53.184;8.216;2022-12-28T06:08:30;2.88;;;2.67;;
1206;SDS011;593;53.184;8.216;2022-12-28T06:11:02;2.67;;;2.47;;
1206;SDS011;593;53.184;8.216;2022-12-28T06:13:29;4.13;;;2.70;;
1206;SDS011;593;53.184;8.216;2022-12-28T06:15:55;3.42;;;3.05;;
1206;SDS011;593;53.184;8.216;2022-12-28T06:18:20;2.00;;;1.90;;
1206;SDS011;593;53.184;8.216;2022-12-28T06:20:46;2.27;;;2.17;;
1206;SDS011;593;53.184;8.216;2022-12-28T06:23:11;2.40;;;2.20;;
1206;SDS011;593;53.184;8.216;2022-12-28T06:25:37;3.20;;;2.90;;
1206;SDS011;593;53.184;8.216;2022-12-28T06:28:02;2.37;;;2.17;;
1206;SDS011;593;53.184;8.216;2022-12-28T06:30:28;2.20;;;2.10;;
1206;SDS011;593;53.184;8.216;2022-12-28T06:32:56;1.77;;;1.67;;
1206;SDS011;593;53.184;8.216;2022-12-28T06:35:21;2.28;;;2.15;;
1206;SDS011;593;53.184;8.216;2022-12-28T06:37:47;1.67;;;1.37;;
1206;SDS011;593;53.184;8.216;2022-12-28T06:40:13;2.60;;;2.40;;
1206;SDS011;593;53.184;8.216;2022-12-28T06:42:38;2.80;;;2.60;;
1206;SDS011;593;53.184;8.216;2022-12-28T06:45:04;4.83;;;2.00;;
1206;SDS011;593;53.184;8.216;2022-12-28T06:47:30;2.97;;;2.60;;
1206;SDS011;593;53.184;8.216;2022-12-28T06:49:55;2.30;;;2.20;;
1206;SDS011;593;53.184;8.216;2022-12-28T06:52:20;1.93;;;1.83;;
1206;SDS011;593;53.184;8.216;2022-12-28T06:54:46;1.80;;;1.70;;
1206;SDS011;593;53.184;8.216;2022-12-28T06:57:11;2.00;;;1.90;;
1206;SDS011;593;53.184;8.216;2022-12-28T06:59:37;1.80;;;1.70;;
1206;SDS011;593;53.184;8.216;2022-12-28T07:02:02;1.97;;;1.87;;
1206;SDS011;593;53.184;8.216;2022-12-28T07:04:27;2.00;;;1.80;;
1206;SDS011;593;53.184;8.216;2022-12-28T07:06:53;2.40;;;2.00;;
1206;SDS011;593;53.184;8.216;2022-12-28T07:09:18;2.97;;;2.77;;
1206;SDS011;593;53.184;8.216;2022-12-28T07:11:44;2.10;;;2.00;;
1206;SDS011;593;53.184;8.216;2022-12-28T07:14:09;2.37;;;2.27;;
1206;SDS011;593;53.184;8.216;2022-12-28T07:16:35;2.45;;;2.30;;
1206;SDS011;593;53.184;8.216;2022-12-28T07:19:01;3.13;;;2.23;;
1206;SDS011;593;53.184;8.216;2022-12-28T07:21:28;3.53;;;2.43;;
1206;SDS011;593;53.184;8.216;2022-12-28T07:23:55;2.70;;;2.60;;
1206;SDS011;593;53.184;8.216;2022-12-28T07:26:22;2.22;;;2.13;;
1206;SDS011;593;53.184;8.216;2022-12-28T07:28:51;2.42;;;2.22;;
1206;SDS011;593;53.184;8.216;2022-12-28T07:31:22;2.08;;;1.92;;
1206;SDS011;593;53.184;8.216;2022-12-28T07:33:50;2.30;;;2.20;;
1206;SDS011;593;53.184;8.216;2022-12-28T07:36:17;2.58;;;2.38;;
1206;SDS011;593;53.184;8.216;2022-12-28T07:38:44;2.83;;;2.63;;
1206;SDS011;593;53.184;8.216;2022-12-28T07:41:11;3.00;;;2.50;;
1206;SDS011;593;53.184;8.216;2022-12-28T07:43:37;2.20;;;2.10;;
1206;SDS011;593;53.184;8.216;2022-12-28T07:46:07;2.67;;;2.47;;
1206;SDS011;593;53.184;8.216;2022-12-28T07:48:56;2.65;;;2.22;;
1206;SDS011;593;53.184;8.216;2022-12-28T07:51:22;2.87;;;2.67;;
1206;SDS011;593;53.184;8.216;2022-12-28T07:53:52;2.30;;;2.10;;
1206;SDS011;593;53.184;8.216;2022-12-28T07:56:20;2.60;;;2.42;;
1206;SDS011;593;53.184;8.216;2022-12-28T07:58:48;2.58;;;2.38;;
1206;SDS011;593;53.184;8.216;2022-12-28T08:01:16;3.05;;;2.83;;
1206;SDS011;593;53.184;8.216;2022-12-28T08:03:43;3.53;;;3.25;;
1206;SDS011;593;53.184;8.216;2022-12-28T08:06:13;2.90;;;2.70;;
1206;SDS011;593;53.184;8.216;2022-12-28T08:08:41;3.55;;;3.35;;
1206;SDS011;593;53.184;8.216;2022-12-28T08:11:09;3.13;;;2.92;;
1206;SDS011;593;53.184;8.216;2022-12-28T08:13:40;3.60;;;3.40;;
1206;SDS011;593;53.184;8.216;2022-12-28T08:16:08;3.63;;;3.33;;
1206;SDS011;593;53.184;8.216;2022-12-28T08:18:35;3.47;;;3.17;;
1206;SDS011;593;53.184;8.216;2022-12-28T08:21:05;4.23;;;3.83;;
1206;SDS011;593;53.184;8.216;2022-12-28T08:23:32;5.57;;;3.30;;
1206;SDS011;593;53.184;8.216;2022-12-28T08:26:06;2.70;;;2.50;;
1206;SDS011;593;53.184;8.216;2022-12-28T08:28:43;3.60;;;3.30;;
1206;SDS011;593;53.184;8.216;2022-12-28T08:31:29;3.30;;;3.08;;
1206;SDS011;593;53.184;8.216;2022-12-28T08:33:57;3.47;;;3.20;;
1206;SDS011;593;53.184;8.216;2022-12-28T08:36:24;3.45;;;3.15;;
1206;SDS011;593;53.184;8.216;2022-12-28T08:38:50;3.90;;;3.60;;
1206;SDS011;593;53.184;8.216;2022-12-28T08:41:16;3.07;;;2.87;;
1206;SDS011;593;53.184;8.216;2022-12-28T08:43:44;3.25;;;2.90;;
1206;SDS011;593;53.184;8.216;2022-12-28T08:46:11;3.67;;;3.38;;
1206;SDS011;593;53.184;8.216;2022-12-28T08:48:38;4.15;;;3.67;;
1206;SDS011;593;53.184;8.216;2022-12-28T08:51:05;2.90;;;2.70;;
1206;SDS011;593;53.184;8.216;2022-12-28T08:53:32;3.40;;;3.20;;
1206;SDS011;593;53.184;8.216;2022-12-28T08:56:05;4.30;;;3.90;;
1206;SDS011;593;53.184;8.216;2022-12-28T08:58:34;2.92;;;2.83;;
1206;SDS011;593;53.184;8.216;2022-12-28T09:01:04;3.43;;;2.87;;
1206;SDS011;593;53.184;8.216;2022-12-28T09:03:30;4.22;;;3.85;;
1206;SDS011;593;53.184;8.216;2022-12-28T09:05:55;3.63;;;3.37;;
1206;SDS011;593;53.184;8.216;2022-12-28T09:08:20;3.47;;;3.17;;
1206;SDS011;593;53.184;8.216;2022-12-28T09:10:46;10.03;;;3.90;;
1206;SDS011;593;53.184;8.216;2022-12-28T09:13:11;3.97;;;3.67;;
1206;SDS011;593;53.184;8.216;2022-12-28T09:15:36;4.10;;;3.70;;
1206;SDS011;593;53.184;8.216;2022-12-28T09:18:02;3.37;;;3.17;;
1206;SDS011;593;53.184;8.216;2022-12-28T09:20:27;4.03;;;3.57;;
1206;SDS011;593;53.184;8.216;2022-12-28T09:22:52;2.90;;;2.70;;
1206;SDS011;593;53.184;8.216;2022-12-28T09:25:18;3.50;;;3.20;;
1206;SDS011;593;53.184;8.216;2022-12-28T09:27:46;3.87;;;3.47;;
1206;SDS011;593;53.184;8.216;2022-12-28T09:30:11;3.20;;;3.00;;
1206;SDS011;593;53.184;8.216;2022-12-28T09:32:37;3.63;;;3.33;;
1206;SDS011;593;53.184;8.216;2022-12-28T09:35:02;3.33;;;3.13;;
1206;SDS011;593;53.184;8.216;2022-12-28T09:37:28;3.57;;;3.37;;
1206;SDS011;593;53.184;8.216;2022-12-28T09:39:53;3.13;;;2.87;;
1206;SDS011;593;53.184;8.216;2022-12-28T09:42:19;3.43;;;3.13;;
1206;SDS011;593;53.184;8.216;2022-12-28T09:44:53;3.05;;;2.75;;
1206;SDS011;593;53.184;8.216;2022-12-28T09:47:47;3.00;;;2.67;;
1206;SDS011;593;53.184;8.216;2022-12-28T09:55:23;3.17;;;2.88;;
1206;SDS011;593;53.184;8.216;2022-12-28T09:57:50;3.00;;;2.20;;
1206;SDS011;593;53.184;8.216;2022-12-28T10:00:23;5.43;;;3.53;;
1206;SDS011;593;53.184;8.216;2022-12-28T10:02:52;2.25;;;2.15;;
1206;SDS011;593;53.184;8.216;2022-12-28T10:05:21;2.42;;;2.28;;
1206;SDS011;593;53.184;8.216;2022-12-28T10:07:47;3.27;;;2.80;;
1206;SDS011;593;53.184;8.216;2022-12-28T10:10:14;2.33;;;2.17;;
1206;SDS011;593;53.184;8.216;2022-12-28T10:12:43;2.83;;;2.65;;
1206;SDS011;593;53.184;8.216;2022-12-28T10:15:13;3.78;;;3.50;;
1206;SDS011;593;53.184;8.216;2022-12-28T10:17:39;3.15;;;2.95;;
1206;SDS011;593;53.184;8.216;2022-12-28T10:20:06;3.28;;;2.97;;
1206;SDS011;593;53.184;8.216;2022-12-28T10:22:39;3.78;;;3.47;;
1206;SDS011;593;53.184;8.216;2022-12-28T10:25:13;3.78;;;3.47;;
1206;SDS011;593;53.184;8.216;2022-12-28T10:27:43;3.33;;;3.03;;
1206;SDS011;593;53.184;8.216;2022-12-28T10:30:19;3.40;;;3.20;;
1206;SDS011;593;53.184;8.216;2022-12-28T10:32:53;4.85;;;3.70;;
1206;SDS011;593;53.184;8.216;2022-12-28T10:37:52;3.42;;;3.13;;
1206;SDS011;593;53.184;8.216;2022-12-28T10:40:27;3.22;;;2.95;;
1206;SDS011;593;53.184;8.216;2022-12-28T10:42:55;3.45;;;3.13;;
1206;SDS011;593;53.184;8.216;2022-12-28T10:45:32;3.60;;;3.30;;
1206;SDS011;593;53.184;8.216;2022-12-28T10:47:58;3.67;;;3.28;;
1206;SDS011;593;53.184;8.216;2022-12-28T10:58:41;3.13;;;2.85;;
1206;SDS011;593;53.184;8.216;2022-12-28T11:03:38;3.92;;;3.35;;
1206;SDS011;593;53.184;8.216;2022-12-28T11:06:25;2.67;;;2.47;;
1206;SDS011;593;53.184;8.216;2022-12-28T11:12:21;3.75;;;3.40;;
1206;SDS011;593;53.184;8.216;2022-12-28T11:14:51;2.95;;;2.60;;
1206;SDS011;593;53.184;8.216;2022-12-28T11:17:19;2.25;;;2.05;;
1206;SDS011;593;53.184;8.216;2022-12-28T11:19:56;3.15;;;2.53;;
1206;SDS011;593;53.184;8.216;2022-12-28T11:22:30;2.95;;;2.72;;
1206;SDS011;593;53.184;8.216;2022-12-28T11:24:57;2.83;;;2.63;;
1206;SDS011;593;53.184;8.216;2022-12-28T11:27:24;3.00;;;2.70;;
1206;SDS011;593;53.184;8.216;2022-12-28T11:29:51;3.90;;;2.93;;
1206;SDS011;593;53.184;8.216;2022-12-28T11:34:52;2.78;;;2.58;;
1206;SDS011;593;53.184;8.216;2022-12-28T11:37:19;2.83;;;2.63;;
1206;SDS011;593;53.184;8.216;2022-12-28T11:39:45;3.13;;;2.50;;
1206;SDS011;593;53.184;8.216;2022-12-28T11:42:51;3.35;;;3.05;;
1206;SDS011;593;53.184;8.216;2022-12-28T11:45:12;2.90;;;2.70;;
1206;SDS011;593;53.184;8.216;2022-12-28T11:47:41;2.97;;;2.70;;
1206;SDS011;593;53.184;8.216;2022-12-28T11:53:22;2.65;;;2.45;;
1206;SDS011;593;53.184;8.216;2022-12-28T11:56:07;2.65;;;2.45;;
1206;SDS011;593;53.184;8.216;2022-12-28T12:01:07;2.42;;;2.25;;
1206;SDS011;593;53.184;8.216;2022-12-28T12:11:46;3.05;;;2.65;;
1206;SDS011;593;53.184;8.216;2022-12-28T12:14:12;3.13;;;2.85;;
1206;SDS011;593;53.184;8.216;2022-12-28T12:16:46;2.50;;;2.40;;
1206;SDS011;593;53.184;8.216;2022-12-28T12:19:24;2.17;;;2.08;;
1206;SDS011;593;53.184;8.216;2022-12-28T12:22:15;2.00;;;1.90;;
1206;SDS011;593;53.184;8.216;2022-12-28T12:24:49;1.75;;;1.65;;
1206;SDS011;593;53.184;8.216;2022-12-28T12:27:25;1.73;;;1.60;;
1206;SDS011;593;53.184;8.216;2022-12-28T12:30:33;2.38;;;2.10;;
1206;SDS011;593;53.184;8.216;2022-12-28T12:32:57;1.80;;;1.70;;
1206;SDS011;593;53.184;8.216;2022-12-28T12:35:27;2.42;;;2.22;;
1206;SDS011;593;53.184;8.216;2022-12-28T12:38:03;1.63;;;1.52;;
1206;SDS011;593;53.184;8.216;2022-12-28T12:52:13;1.63;;;1.20;;
1206;SDS011;593;53.184;8.216;2022-12-28T13:00:40;1.30;;;1.20;;
1206;SDS011;593;53.184;8.216;2022-12-28T13:05:44;1.20;;;1.10;;
1206;SDS011;593;53.184;8.216;2022-12-28T13:08:18;1.35;;;1.25;;
1206;SDS011;593;53.184;8.216;2022-12-28T13:10:59;1.48;;;1.38;;
1206;SDS011;593;53.184;8.216;2022-12-28T13:13:32;1.60;;;1.40;;
1206;SDS011;593;53.184;8.216;2022-12-28T13:16:01;1.00;;;0.90;;
1206;SDS011;593;53.184;8.216;2022-12-28T13:18:31;1.42;;;1.27;;
1206;SDS011;593;53.184;8.216;2022-12-28T13:20:58;1.37;;;1.27;;
1206;SDS011;593;53.184;8.216;2022-12-28T13:23:26;1.80;;;1.70;;
1206;SDS011;593;53.184;8.216;2022-12-28T13:25:57;1.48;;;1.38;;
1206;SDS011;593;53.184;8.216;2022-12-28T13:33:30;1.55;;;1.45;;
1206;SDS011;593;53.184;8.216;2022-12-28T13:38:33;1.45;;;1.20;;
1206;SDS011;593;53.184;8.216;2022-12-28T13:40:58;1.10;;;1.00;;
1206;SDS011;593;53.184;8.216;2022-12-28T13:46:18;1.38;;;1.27;;
1206;SDS011;593;53.184;8.216;2022-12-28T13:48:45;1.42;;;1.33;;
1206;SDS011;593;53.184;8.216;2022-12-28T13:51:15;1.17;;;1.08;;
1206;SDS011;593;53.184;8.216;2022-12-28T13:53:45;1.50;;;1.33;;
1206;SDS011;593;53.184;8.216;2022-12-28T13:56:15;1.10;;;0.80;;
1206;SDS011;593;53.184;8.216;2022-12-28T13:58:44;1.00;;;1.00;;
1206;SDS011;593;53.184;8.216;2022-12-28T14:01:15;0.90;;;0.90;;
1206;SDS011;593;53.184;8.216;2022-12-28T14:03:44;0.80;;;0.80;;
1206;SDS011;593;53.184;8.216;2022-12-28T14:06:12;2.28;;;1.65;;
1206;SDS011;593;53.184;8.216;2022-12-28T14:08:40;1.50;;;1.40;;
1206;SDS011;593;53.184;8.216;2022-12-28T14:11:07;1.35;;;0.80;;
1206;SDS011;593;53.184;8.216;2022-12-28T14:13:34;1.30;;;1.20;;
1206;SDS011;593;53.184;8.216;2022-12-28T14:16:01;1.40;;;1.30;;
1206;SDS011;593;53.184;8.216;2022-12-28T14:18:28;1.10;;;1.00;;
1206;SDS011;593;53.184;8.216;2022-12-28T14:20:57;0.95;;;0.93;;
1206;SDS011;593;53.184;8.216;2022-12-28T14:23:27;1.30;;;1.10;;
1206;SDS011;593;53.184;8.216;2022-12-28T14:25:58;1.23;;;1.17;;
1206;SDS011;593;53.184;8.216;2022-12-28T14:31:06;1.05;;;1.00;;
1206;SDS011;593;53.184;8.216;2022-12-28T14:33:33;1.00;;;0.90;;
1206;SDS011;593;53.184;8.216;2022-12-28T14:36:02;1.90;;;1.10;;
1206;SDS011;593;53.184;8.216;2022-12-28T14:38:34;1.23;;;1.13;;
1206;SDS011;593;53.184;8.216;2022-12-28T14:41:04;1.27;;;1.17;;
1206;SDS011;593;53.184;8.216;2022-12-28T14:43:30;0.80;;;0.80;;
1206;SDS011;593;53.184;8.216;2022-12-28T14:45:57;1.00;;;1.00;;
1206;SDS011;593;53.184;8.216;2022-12-28T14:48:39;1.35;;;1.20;;
1206;SDS011;593;53.184;8.216;2022-12-28T14:53:40;1.33;;;1.13;;
1206;SDS011;593;53.184;8.216;2022-12-28T14:56:10;3.15;;;1.55;;
1206;SDS011;593;53.184;8.216;2022-12-28T14:58:47;1.45;;;1.35;;
1206;SDS011;593;53.184;8.216;2022-12-28T15:01:18;1.77;;;1.48;;
1206;SDS011;593;53.184;8.216;2022-12-28T15:06:26;1.70;;;1.52;;
1206;SDS011;593;53.184;8.216;2022-12-28T15:08:53;1.70;;;1.50;;
1206;SDS011;593;53.184;8.216;2022-12-28T15:11:21;1.50;;;1.40;;
1206;SDS011;593;53.184;8.216;2022-12-28T15:13:47;1.58;;;1.48;;
1206;SDS011;593;53.184;8.216;2022-12-28T15:16:14;1.90;;;1.80;;
1206;SDS011;593;53.184;8.216;2022-12-28T15:18:41;2.35;;;2.15;;
1206;SDS011;593;53.184;8.216;2022-12-28T15:21:14;1.90;;;1.73;;
1206;SDS011;593;53.184;8.216;2022-12-28T15:23:42;1.70;;;1.60;;
1206;SDS011;593;53.184;8.216;2022-12-28T15:26:08;1.80;;;1.70;;
1206;SDS011;593;53.184;8.216;2022-12-28T15:28:35;2.17;;;2.08;;
1206;SDS011;593;53.184;8.216;2022-12-28T15:31:04;1.50;;;1.40;;
1206;SDS011;593;53.184;8.216;2022-12-28T15:33:31;1.98;;;1.80;;
1206;SDS011;593;53.184;8.216;2022-12-28T15:36:09;1.57;;;1.47;;
1206;SDS011;593;53.184;8.216;2022-12-28T15:38:36;1.90;;;1.80;;
1206;SDS011;593;53.184;8.216;2022-12-28T15:41:01;2.00;;;1.90;;
1206;SDS011;593;53.184;8.216;2022-12-28T15:43:27;2.80;;;2.60;;
1206;SDS011;593;53.184;8.216;2022-12-28T15:45:53;2.80;;;2.60;;
1206;SDS011;593;53.184;8.216;2022-12-28T15:48:19;2.10;;;2.00;;
1206;SDS011;593;53.184;8.216;2022-12-28T15:50:44;2.80;;;2.60;;
1206;SDS011;593;53.184;8.216;2022-12-28T15:53:09;2.10;;;2.00;;
1206;SDS011;593;53.184;8.216;2022-12-28T15:55:35;2.47;;;2.27;;
1206;SDS011;593;53.184;8.216;2022-12-28T15:58:00;2.80;;;2.60;;
1206;SDS011;593;53.184;8.216;2022-12-28T16:00:26;3.67;;;3.37;;
1206;SDS011;593;53.184;8.216;2022-12-28T16:02:51;2.60;;;2.40;;
1206;SDS011;593;53.184;8.216;2022-12-28T16:05:16;3.27;;;2.90;;
1206;SDS011;593;53.184;8.216;2022-12-28T16:07:42;3.50;;;3.30;;
1206;SDS011;593;53.184;8.216;2022-12-28T16:10:07;4.10;;;2.87;;
1206;SDS011;593;53.184;8.216;2022-12-28T16:12:33;3.30;;;2.87;;
1206;SDS011;593;53.184;8.216;2022-12-28T16:14:59;3.63;;;3.33;;
1206;SDS011;593;53.184;8.216;2022-12-28T16:17:24;4.00;;;2.53;;
1206;SDS011;593;53.184;8.216;2022-12-28T16:19:50;2.47;;;2.27;;
1206;SDS011;593;53.184;8.216;2022-12-28T16:22:15;2.80;;;2.60;;
1206;SDS011;593;53.184;8.216;2022-12-28T16:24:40;3.40;;;2.70;;
1206;SDS011;593;53.184;8.216;2022-12-28T16:27:06;3.53;;;3.23;;
1206;SDS011;593;53.184;8.216;2022-12-28T16:29:32;2.95;;;2.72;;
1206;SDS011;593;53.184;8.216;2022-12-28T16:31:58;3.63;;;3.40;;
1206;SDS011;593;53.184;8.216;2022-12-28T16:34:24;2.75;;;2.55;;
1206;SDS011;593;53.184;8.216;2022-12-28T16:36:52;3.17;;;2.88;;
1206;SDS011;593;53.184;8.216;2022-12-28T16:39:21;4.60;;;2.70;;
1206;SDS011;593;53.184;8.216;2022-12-28T16:41:47;2.30;;;2.10;;
1206;SDS011;593;53.184;8.216;2022-12-28T16:44:13;3.03;;;2.83;;
1206;SDS011;593;53.184;8.216;2022-12-28T16:46:43;3.08;;;2.88;;
1206;SDS011;593;53.184;8.216;2022-12-28T16:49:09;7.33;;;3.30;;
1206;SDS011;593;53.184;8.216;2022-12-28T16:51:36;2.90;;;2.80;;
1206;SDS011;593;53.184;8.216;2022-12-28T16:54:03;4.68;;;3.03;;
1206;SDS011;593;53.184;8.216;2022-12-28T16:56:29;3.20;;;2.90;;
1206;SDS011;593;53.184;8.216;2022-12-28T16:58:55;3.33;;;2.60;;
1206;SDS011;593;53.184;8.216;2022-12-28T17:01:21;2.90;;;2.60;;
1206;SDS011;593;53.184;8.216;2022-12-28T17:03:47;2.50;;;2.30;;
1206;SDS011;593;53.184;8.216;2022-12-28T17:06:12;3.20;;;2.60;;
1206;SDS011;593;53.184;8.216;2022-12-28T17:08:38;4.13;;;2.67;;
1206;SDS011;593;53.184;8.216;2022-12-28T17:11:07;3.10;;;2.90;;
1206;SDS011;593;53.184;8.216;2022-12-28T17:13:34;3.20;;;2.95;;
1206;SDS011;593;53.184;8.216;2022-12-28T17:16:00;4.75;;;3.30;;
1206;SDS011;593;53.184;8.216;2022-12-28T17:18:27;3.53;;;3.28;;
1206;SDS011;593;53.184;8.216;2022-12-28T17:20:53;2.63;;;2.47;;
1206;SDS011;593;53.184;8.216;2022-12-28T17:23:19;2.85;;;2.58;;
1206;SDS011;593;53.184;8.216;2022-12-28T17:25:47;3.50;;;3.27;;
1206;SDS011;593;53.184;8.216;2022-12-28T17:28:16;2.58;;;2.38;;
1206;SDS011;593;53.184;8.216;2022-12-28T17:30:41;3.10;;;2.67;;
1206;SDS011;593;53.184;8.216;2022-12-28T17:33:07;2.90;;;1.90;;
1206;SDS011;593;53.184;8.216;2022-12-28T17:35:33;2.45;;;2.25;;